Time,TemperatureF,DewpointF,PressureIn,WindDirection,WindDirectionDegrees,WindSpeedMPH,WindSpeedGustMPH,Humidity,HourlyPrecipIn,Conditions,Clouds,dailyrainin,SoftwareType,DateUTC
2013-05-15 00:11:00,52.0,38.0,-100.00,NNW,329,4.0,7.0,59,0.00,,,0.00,,2013-05-15 07:11:00,
2013-05-15 00:21:00,52.0,38.0,-100.00,NNW,329,4.0,7.0,59,0.00,,,0.00,,2013-05-15 07:21:00,
2013-05-15 00:32:00,52.0,38.0,-100.00,NNW,329,4.0,7.0,59,0.00,,,0.00,,2013-05-15 07:32:00,
2013-05-15 00:41:00,52.0,38.0,-100.00,NNW,329,4.0,7.0,59,0.00,,,0.00,,2013-05-15 07:41:00,
2013-05-15 00:52:00,52.0,38.0,-100.00,NNW,329,4.0,7.0,59,0.00,,,0.00,,2013-05-15 07:52:00,
2013-05-15 01:12:00,53.0,39.0,-100.00,NW,325,5.0,9.0,59,0.00,,,0.00,,2013-05-15 08:12:00,
2013-05-15 01:21:00,53.0,39.0,-100.00,NW,325,5.0,9.0,59,0.00,,,0.00,,2013-05-15 08:21:00,
2013-05-15 01:32:00,53.0,39.0,-100.00,NW,325,5.0,9.0,59,0.00,,,0.00,,2013-05-15 08:32:00,
2013-05-15 01:42:00,53.0,39.0,-100.00,NW,325,5.0,9.0,59,0.00,,,0.00,,2013-05-15 08:42:00,
2013-05-15 01:52:00,53.0,39.0,-100.00,NW,325,5.0,9.0,59,0.00,,,0.00,,2013-05-15 08:52:00,
2013-05-15 01:53:00,52.0,41.0,-100.00,NNW,335,4.0,7.0,67,0.00,,,0.00,,2013-05-15 08:53:00,
2013-05-15 02:21:00,52.0,41.0,-100.00,NNW,335,4.0,7.0,67,0.00,,,0.00,,2013-05-15 09:21:00,
2013-05-15 02:32:00,52.0,41.0,-100.00,NNW,335,4.0,7.0,67,0.00,,,0.00,,2013-05-15 09:32:00,
2013-05-15 02:42:00,52.0,41.0,-100.00,NNW,335,4.0,7.0,67,0.00,,,0.00,,2013-05-15 09:42:00,
2013-05-15 03:12:00,52.0,43.0,-100.00,NW,319,4.0,7.0,72,0.00,,,0.00,,2013-05-15 10:12:00,
2013-05-15 03:22:00,52.0,43.0,-100.00,NW,319,4.0,7.0,72,0.00,,,0.00,,2013-05-15 10:22:00,
2013-05-15 03:32:00,52.0,43.0,-100.00,NW,319,4.0,7.0,72,0.00,,,0.00,,2013-05-15 10:32:00,
2013-05-15 03:42:00,52.0,43.0,-100.00,NW,319,4.0,7.0,72,0.00,,,0.00,,2013-05-15 10:42:00,
2013-05-15 03:52:00,52.0,43.0,-100.00,NW,319,4.0,7.0,72,0.00,,,0.00,,2013-05-15 10:52:00,
2013-05-15 04:17:00,52.0,44.0,-100.00,NW,316,4.0,7.0,75,0.00,,,0.00,,2013-05-15 11:17:00,
2013-05-15 04:26:00,52.0,44.0,-100.00,NW,316,4.0,7.0,75,0.00,,,0.00,,2013-05-15 11:26:00,
2013-05-15 04:44:00,52.0,44.0,-100.00,NW,316,4.0,7.0,75,0.00,,,0.00,,2013-05-15 11:44:00,
2013-05-15 04:52:00,52.0,44.0,-100.00,NW,316,4.0,7.0,75,0.00,,,0.00,,2013-05-15 11:52:00,
2013-05-15 05:13:00,51.0,45.0,-100.00,NNW,333,5.0,8.0,79,0.00,,,0.00,,2013-05-15 12:13:00,
2013-05-15 05:35:00,51.0,45.0,-100.00,NNW,333,5.0,8.0,79,0.00,,,0.00,,2013-05-15 12:35:00,
2013-05-15 05:44:00,51.0,45.0,-100.00,NNW,333,5.0,8.0,79,0.00,,,0.00,,2013-05-15 12:44:00,
2013-05-15 06:15:00,52.0,44.0,-100.00,North,351,4.0,9.0,73,0.00,,,0.00,,2013-05-15 13:15:00,
2013-05-15 06:24:00,52.0,44.0,-100.00,North,351,4.0,9.0,73,0.00,,,0.00,,2013-05-15 13:24:00,
2013-05-15 06:35:00,52.0,44.0,-100.00,North,351,4.0,9.0,73,0.00,,,0.00,,2013-05-15 13:35:00,
2013-05-15 06:44:00,52.0,44.0,-100.00,North,351,4.0,9.0,73,0.00,,,0.00,,2013-05-15 13:44:00,
2013-05-15 06:52:00,52.0,44.0,-100.00,North,351,4.0,9.0,73,0.00,,,0.00,,2013-05-15 13:52:00,
2013-05-15 07:12:00,52.0,44.0,-100.00,NNW,340,4.0,10.0,73,0.00,,,0.00,,2013-05-15 14:12:00,
2013-05-15 07:53:00,56.0,47.0,-100.00,WNW,290,5.0,9.0,72,0.00,,,0.00,,2013-05-15 14:53:00,
2013-05-15 08:14:00,56.0,47.0,-100.00,WNW,290,5.0,9.0,72,0.00,,,0.00,,2013-05-15 15:14:00,
2013-05-15 08:35:00,56.0,47.0,-100.00,WNW,290,5.0,9.0,72,0.00,,,0.00,,2013-05-15 15:35:00,
2013-05-15 08:44:00,56.0,47.0,-100.00,WNW,290,5.0,9.0,72,0.00,,,0.00,,2013-05-15 15:44:00,
2013-05-15 09:19:00,59.0,46.0,-100.00,WNW,295,4.0,9.0,62,0.00,,,-99.99,,2013-05-15 16:19:00,
2013-05-15 09:27:00,59.0,46.0,-100.00,WNW,295,4.0,9.0,62,0.00,,,-99.99,,2013-05-15 16:27:00,
2013-05-15 09:34:00,59.0,46.0,-100.00,WNW,295,4.0,9.0,62,0.00,,,-99.99,,2013-05-15 16:34:00,
2013-05-15 09:45:00,59.0,46.0,-100.00,WNW,295,4.0,9.0,62,0.00,,,-99.99,,2013-05-15 16:45:00,
2013-05-15 09:52:00,59.0,46.0,-100.00,WNW,295,4.0,9.0,62,0.00,,,-99.99,,2013-05-15 16:52:00,
2013-05-15 10:26:00,62.0,45.0,-100.00,WNW,295,6.0,11.0,54,0.00,,,0.00,,2013-05-15 17:26:00,
2013-05-15 10:34:00,62.0,45.0,-100.00,WNW,295,6.0,11.0,54,0.00,,,0.00,,2013-05-15 17:34:00,
2013-05-15 10:45:00,62.0,45.0,-100.00,WNW,295,6.0,11.0,54,0.00,,,0.00,,2013-05-15 17:45:00,
2013-05-15 10:53:00,65.0,45.0,-100.00,WNW,288,6.0,11.0,49,0.00,,,0.00,,2013-05-15 17:53:00,
2013-05-15 11:13:00,65.0,45.0,-100.00,WNW,288,6.0,11.0,49,0.00,,,0.00,,2013-05-15 18:13:00,
2013-05-15 11:25:00,65.0,45.0,-100.00,WNW,288,6.0,11.0,49,0.00,,,0.00,,2013-05-15 18:25:00,
2013-05-15 11:35:00,65.0,45.0,-100.00,WNW,288,6.0,11.0,49,0.00,,,0.00,,2013-05-15 18:35:00,
2013-05-15 12:14:00,66.0,42.0,-100.00,WNW,287,7.0,12.0,42,0.00,,,0.00,,2013-05-15 19:14:00,
2013-05-15 12:26:00,66.0,42.0,-100.00,WNW,287,7.0,12.0,42,0.00,,,0.00,,2013-05-15 19:26:00,
2013-05-15 12:34:00,66.0,42.0,-100.00,WNW,287,7.0,12.0,42,0.00,,,0.00,,2013-05-15 19:34:00,
2013-05-15 12:52:00,66.0,42.0,-100.00,WNW,287,7.0,12.0,42,0.00,,,0.00,,2013-05-15 19:52:00,
2013-05-15 13:15:00,67.0,43.0,-100.00,WNW,293,7.0,12.0,41,0.00,,,0.00,,2013-05-15 20:15:00,
2013-05-15 13:25:00,67.0,43.0,-100.00,WNW,293,7.0,12.0,41,0.00,,,0.00,,2013-05-15 20:25:00,
2013-05-15 13:34:00,67.0,43.0,-100.00,WNW,293,7.0,12.0,41,0.00,,,0.00,,2013-05-15 20:34:00,
2013-05-15 13:44:00,67.0,43.0,-100.00,WNW,293,7.0,12.0,41,0.00,,,0.00,,2013-05-15 20:44:00,
2013-05-15 13:52:00,67.0,43.0,-100.00,WNW,293,7.0,12.0,41,0.00,,,0.00,,2013-05-15 20:52:00,
2013-05-15 13:53:00,69.0,39.0,-100.00,WNW,287,8.0,14.0,33,0.00,,,0.00,,2013-05-15 20:53:00,
2013-05-15 14:26:00,69.0,39.0,-100.00,WNW,287,8.0,14.0,33,0.00,,,0.00,,2013-05-15 21:26:00,
2013-05-15 14:38:00,69.0,39.0,-100.00,WNW,287,8.0,14.0,33,0.00,,,0.00,,2013-05-15 21:38:00,
2013-05-15 14:46:00,69.0,39.0,-100.00,WNW,287,8.0,14.0,33,0.00,,,0.00,,2013-05-15 21:46:00,
2013-05-15 15:16:00,69.0,35.0,-100.00,WNW,291,8.0,17.0,29,0.00,,,0.00,,2013-05-15 22:16:00,
2013-05-15 15:27:00,69.0,35.0,-100.00,WNW,291,8.0,17.0,29,0.00,,,0.00,,2013-05-15 22:27:00,
2013-05-15 15:46:00,69.0,35.0,-100.00,WNW,291,8.0,17.0,29,0.00,,,0.00,,2013-05-15 22:46:00,
2013-05-15 15:52:00,69.0,35.0,-100.00,WNW,291,8.0,17.0,29,0.00,,,0.00,,2013-05-15 22:52:00,
2013-05-15 16:27:00,68.0,37.0,-100.00,WNW,292,9.0,15.0,32,0.00,,,0.00,,2013-05-15 23:27:00,
2013-05-15 16:36:00,68.0,37.0,-100.00,WNW,292,9.0,15.0,32,0.00,,,0.00,,2013-05-15 23:36:00,
2013-05-15 16:45:00,68.0,37.0,-100.00,WNW,292,9.0,15.0,32,0.00,,,0.00,,2013-05-15 23:45:00,
2013-05-15 16:53:00,68.0,36.0,-100.00,WNW,291,8.0,15.0,31,0.00,,,0.00,,2013-05-15 23:53:00,
2013-05-15 17:25:00,68.0,36.0,-100.00,WNW,291,8.0,15.0,31,0.00,,,0.00,,2013-05-16 00:25:00,
2013-05-15 17:35:00,68.0,36.0,-100.00,WNW,291,8.0,15.0,31,0.00,,,0.00,,2013-05-16 00:35:00,
2013-05-15 17:45:00,68.0,36.0,-100.00,WNW,291,8.0,15.0,31,0.00,,,0.00,,2013-05-16 00:45:00,
2013-05-15 18:14:00,66.0,35.0,-100.00,WNW,290,7.0,15.0,32,0.00,,,0.00,,2013-05-16 01:14:00,
2013-05-15 18:25:00,66.0,35.0,-100.00,WNW,290,7.0,15.0,32,0.00,,,0.00,,2013-05-16 01:25:00,
2013-05-15 18:35:00,66.0,35.0,-100.00,WNW,290,7.0,15.0,32,0.00,,,0.00,,2013-05-16 01:35:00,
2013-05-15 18:52:00,66.0,35.0,-100.00,WNW,290,7.0,15.0,32,0.00,,,0.00,,2013-05-16 01:52:00,
2013-05-15 19:15:00,63.0,33.0,-100.00,WNW,300,9.0,15.0,32,0.00,,,0.00,,2013-05-16 02:15:00,
2013-05-15 19:26:00,63.0,33.0,-100.00,WNW,300,9.0,15.0,32,0.00,,,0.00,,2013-05-16 02:26:00,
2013-05-15 19:36:00,63.0,33.0,-100.00,WNW,300,9.0,15.0,32,0.00,,,0.00,,2013-05-16 02:36:00,
2013-05-15 19:43:00,63.0,33.0,-100.00,WNW,300,9.0,15.0,32,0.00,,,0.00,,2013-05-16 02:43:00,
2013-05-15 19:51:00,63.0,33.0,-100.00,WNW,300,9.0,15.0,32,0.00,,,0.00,,2013-05-16 02:51:00,
2013-05-15 19:53:00,59.0,31.0,-100.00,NW,309,5.0,15.0,35,0.00,,,0.00,,2013-05-16 02:53:00,
2013-05-15 20:24:00,59.0,31.0,-100.00,NW,309,5.0,15.0,35,0.00,,,0.00,,2013-05-16 03:24:00,
2013-05-15 20:44:00,59.0,31.0,-100.00,NW,309,5.0,15.0,35,0.00,,,0.00,,2013-05-16 03:44:00,
2013-05-15 21:23:00,56.0,33.0,-100.00,NW,324,4.0,12.0,41,0.00,,,0.00,,2013-05-16 04:23:00,
2013-05-15 21:33:00,56.0,33.0,-100.00,NW,324,4.0,12.0,41,0.00,,,0.00,,2013-05-16 04:33:00,
2013-05-15 21:42:00,56.0,33.0,-100.00,NW,324,4.0,12.0,41,0.00,,,0.00,,2013-05-16 04:42:00,
2013-05-15 21:52:00,56.0,33.0,-100.00,NW,324,4.0,12.0,41,0.00,,,0.00,,2013-05-16 04:52:00,
2013-05-15 22:22:00,55.0,31.0,-100.00,NNW,327,4.0,8.0,39,0.00,,,0.00,,2013-05-16 05:22:00,
2013-05-15 22:32:00,55.0,31.0,-100.00,NNW,327,4.0,8.0,39,0.00,,,0.00,,2013-05-16 05:32:00,
2013-05-15 22:42:00,55.0,31.0,-100.00,NNW,327,4.0,8.0,39,0.00,,,0.00,,2013-05-16 05:42:00,
2013-05-15 22:52:00,55.0,31.0,-100.00,NNW,327,4.0,8.0,39,0.00,,,0.00,,2013-05-16 05:52:00,
2013-05-15 23:22:00,55.0,33.0,-100.00,WNW,301,6.0,12.0,43,0.00,,,0.00,,2013-05-16 06:22:00,
2013-05-15 23:33:00,55.0,33.0,-100.00,WNW,301,6.0,12.0,43,0.00,,,0.00,,2013-05-16 06:33:00,
2013-05-15 23:43:00,55.0,33.0,-100.00,WNW,301,6.0,12.0,43,0.00,,,0.00,,2013-05-16 06:43:00,
2013-05-15 23:52:00,55.0,33.0,-100.00,WNW,301,6.0,12.0,43,0.00,,,0.00,,2013-05-16 06:52:00,
2013-05-15 23:53:00,53.0,34.0,-100.00,NW,305,5.0,11.0,48,0.00,,,0.00,,2013-05-16 06:53:00,